Time;durP1;ratioP1;P1;durP2;ratioP2;P2;SDS_P1;SDS_P2;PMS_P1;PMS_P2;Temp;Humidity;BMP_temperature;BMP_pressure;BME280_temperature;BME280_humidity;BME280_pressure;Samples;Min_cycle;Max_cycle;Signal;HPM_P1;HPM_P2
2023/02/15 00:01:32;;;;;;;40.88;28.48;;;9.40;71.70;;;;;;6275999;22;20307;-75
2023/02/15 00:03:58;;;;;;;40.33;27.65;;;9.40;71.70;;;;;;6276002;22;20252;-75
2023/02/15 00:06:24;;;;;;;38.42;28.83;;;9.40;71.50;;;;;;6276466;22;20137;-74
2023/02/15 00:08:49;;;;;;;42.40;27.75;;;9.30;71.60;;;;;;6276242;22;20015;-74
2023/02/15 00:14:03;;;;;;;36.53;27.45;;;9.30;71.20;;;;;;6276142;22;20341;-75
2023/02/15 00:16:29;;;;;;;37.70;27.25;;;9.30;71.30;;;;;;6275806;22;20008;-75
2023/02/15 00:18:55;;;;;;;40.38;27.13;;;9.20;70.90;;;;;;6276233;22;19996;-75
2023/02/15 00:21:21;;;;;;;36.28;26.35;;;9.20;71.00;;;;;;6274361;22;20038;-74
2023/02/15 00:23:46;;;;;;;38.92;27.85;;;9.20;71.10;;;;;;6275983;22;19996;-75
2023/02/15 00:26:12;;;;;;;39.67;26.73;;;9.10;71.10;;;;;;6276180;22;20442;-74
2023/02/15 00:28:38;;;;;;;40.88;27.25;;;9.10;71.20;;;;;;6275945;22;20078;-74
2023/02/15 00:31:10;;;;;;;38.05;27.10;;;9.10;71.20;;;;;;6275647;22;20000;-75
2023/02/15 00:33:37;;;;;;;43.05;27.63;;;9.10;71.30;;;;;;6276172;22;20000;-73
2023/02/15 00:36:04;;;;;;;39.40;26.75;;;9.10;71.50;;;;;;6276480;22;20007;-75
2023/02/15 00:38:31;;;;;;;46.78;26.88;;;9.00;71.70;;;;;;6276366;22;20075;-76
2023/02/15 00:41:00;;;;;;;42.47;26.80;;;9.00;72.10;;;;;;6275568;22;20011;-75
2023/02/15 00:43:27;;;;;;;41.00;26.27;;;9.00;71.80;;;;;;6274026;22;20011;-75
2023/02/15 00:45:53;;;;;;;37.63;26.35;;;8.90;72.10;;;;;;6275745;22;20039;-74
2023/02/15 00:48:19;;;;;;;36.17;26.42;;;8.90;72.30;;;;;;6275714;22;20372;-75
2023/02/15 00:50:46;;;;;;;36.13;24.73;;;8.80;72.60;;;;;;6275905;22;20000;-75
2023/02/15 00:53:13;;;;;;;42.33;25.95;;;8.90;72.60;;;;;;6275917;22;20004;-76
2023/02/15 00:55:40;;;;;;;40.17;24.88;;;8.90;72.60;;;;;;6284341;22;20452;-74
2023/02/15 00:58:06;;;;;;;43.72;25.13;;;8.90;72.70;;;;;;6284718;22;20004;-75
2023/02/15 01:00:32;;;;;;;34.80;23.90;;;8.90;72.40;;;;;;6287897;22;20079;-74
2023/02/15 01:02:58;;;;;;;41.40;25.15;;;8.90;72.90;;;;;;6277668;22;19996;-74
2023/02/15 01:05:24;;;;;;;37.53;24.65;;;8.90;72.80;;;;;;6276797;22;20477;-75
2023/02/15 01:07:49;;;;;;;38.17;24.50;;;8.90;72.50;;;;;;6276523;22;20007;-75
2023/02/15 01:10:15;;;;;;;38.08;25.58;;;8.80;72.50;;;;;;6275872;22;20003;-74
2023/02/15 01:12:42;;;;;;;36.70;25.52;;;8.70;72.50;;;;;;6275668;22;20003;-76
2023/02/15 01:15:08;;;;;;;33.63;24.95;;;8.70;72.50;;;;;;6276103;22;20070;-75
2023/02/15 01:17:33;;;;;;;36.75;25.23;;;8.70;72.90;;;;;;6275804;22;20003;-73
2023/02/15 01:19:59;;;;;;;32.90;23.90;;;8.70;72.80;;;;;;6273669;22;20436;-75
2023/02/15 01:22:25;;;;;;;38.17;24.60;;;8.60;72.60;;;;;;6275481;22;20049;-75
2023/02/15 01:24:51;;;;;;;31.67;24.08;;;8.60;72.60;;;;;;6275403;22;20073;-74
2023/02/15 01:27:17;;;;;;;38.33;25.60;;;8.60;73.00;;;;;;6275371;22;20007;-75
2023/02/15 01:29:42;;;;;;;37.85;25.65;;;8.60;72.90;;;;;;6275222;22;20023;-75
2023/02/15 01:32:08;;;;;;;34.92;24.88;;;8.60;72.70;;;;;;6273955;22;20008;-74
2023/02/15 01:34:34;;;;;;;36.17;25.13;;;8.50;72.90;;;;;;6273885;22;20034;-74
2023/02/15 01:37:00;;;;;;;38.67;24.65;;;8.60;72.70;;;;;;6275236;22;20000;-75
2023/02/15 01:39:25;;;;;;;39.08;24.23;;;8.50;72.70;;;;;;6273704;22;20007;-74
2023/02/15 01:41:51;;;;;;;39.80;25.38;;;8.50;72.70;;;;;;6275468;22;20062;-74
2023/02/15 01:44:51;;;;;;;34.42;24.77;;;8.50;72.30;;;;;;6275366;22;20438;-75
2023/02/15 01:47:40;;;;;;;39.90;23.27;;;8.40;74.30;;;;;;6273647;22;20008;-74
2023/02/15 01:50:14;;;;;;;35.05;25.40;;;8.40;72.60;;;;;;6275429;22;20006;-74
2023/02/15 01:52:46;;;;;;;35.28;23.98;;;8.40;73.20;;;;;;6277928;22;19996;-75
2023/02/15 01:55:13;;;;;;;39.90;24.60;;;8.40;72.60;;;;;;6277365;22;20122;-75
2023/02/15 01:57:39;;;;;;;40.45;25.08;;;8.40;72.70;;;;;;6277124;22;19999;-75
2023/02/15 02:00:07;;;;;;;33.88;23.30;;;8.30;72.30;;;;;;6277204;22;20023;-75
2023/02/15 02:02:32;;;;;;;37.33;24.02;;;8.30;73.10;;;;;;6277249;22;20430;-74
2023/02/15 02:05:06;;;;;;;31.27;23.73;;;8.30;72.70;;;;;;6275666;22;20043;-74
2023/02/15 02:07:34;;;;;;;36.63;23.60;;;8.30;72.80;;;;;;6275640;22;20010;-75
2023/02/15 02:10:01;;;;;;;33.63;22.88;;;8.30;72.40;;;;;;6277165;22;20000;-74
2023/02/15 02:12:27;;;;;;;34.47;23.38;;;8.20;72.60;;;;;;6275474;22;20061;-74
2023/02/15 02:14:54;;;;;;;34.90;23.45;;;8.10;72.60;;;;;;6275642;22;20082;-74
2023/02/15 02:18:18;;;;;;;28.17;22.15;;;8.10;72.80;;;;;;6277152;22;19999;-74
2023/02/15 02:21:48;;;;;;;32.33;23.15;;;8.10;73.10;;;;;;6124172;23;20009;-74
2023/02/15 02:24:13;;;;;;;31.58;22.58;;;8.00;74.10;;;;;;6095832;23;20010;-74
2023/02/15 02:27:00;;;;;;;32.33;22.45;;;7.90;72.90;;;;;;6218441;23;20022;-75
2023/02/15 02:29:35;;;;;;;38.13;23.25;;;7.90;74.10;;;;;;6261960;22;20354;-77
2023/02/15 02:32:19;;;;;;;36.35;22.15;;;7.90;74.20;;;;;;6277203;22;20000;-76
2023/02/15 02:35:11;;;;;;;33.63;23.08;;;7.80;73.30;;;;;;6277279;22;20023;-74
2023/02/15 02:38:11;;;;;;;31.15;22.73;;;7.80;73.00;;;;;;6276343;22;20041;-75
2023/02/15 02:40:49;;;;;;;29.88;21.17;;;7.80;74.90;;;;;;6276715;22;20000;-75
2023/02/15 02:43:38;;;;;;;32.30;21.35;;;7.70;74.00;;;;;;6277072;22;20026;-74
2023/02/15 02:46:36;;;;;;;30.42;20.60;;;7.70;72.80;;;;;;6276920;22;20015;-75
2023/02/15 02:49:02;;;;;;;28.52;20.85;;;7.70;72.80;;;;;;6254023;22;20014;-75
2023/02/15 02:51:28;;;;;;;29.45;21.38;;;7.70;72.70;;;;;;6276879;22;20365;-75
2023/02/15 02:53:56;;;;;;;29.38;20.88;;;7.70;72.50;;;;;;6275178;22;20444;-75
2023/02/15 02:56:47;;;;;;;29.35;21.38;;;7.70;72.40;;;;;;6274967;22;20011;-74
2023/02/15 02:59:20;;;;;;;29.80;21.10;;;7.60;72.50;;;;;;6276792;22;20499;-75
2023/02/15 03:01:52;;;;;;;31.33;21.90;;;7.60;72.70;;;;;;6276731;22;20008;-75
2023/02/15 03:04:22;;;;;;;27.58;20.70;;;7.60;72.60;;;;;;6276434;22;20434;-75
2023/02/15 03:07:01;;;;;;;29.27;21.17;;;7.60;72.50;;;;;;6276968;22;20438;-75
2023/02/15 03:09:42;;;;;;;28.73;21.95;;;7.60;73.60;;;;;;6276769;22;20003;-75
2023/02/15 03:12:09;;;;;;;30.08;21.30;;;7.50;72.50;;;;;;6277073;22;20018;-74
2023/02/15 03:14:36;;;;;;;28.67;21.00;;;7.50;72.90;;;;;;6276806;22;20019;-76
2023/02/15 03:17:04;;;;;;;33.85;21.45;;;7.60;72.70;;;;;;6274598;22;20012;-75
2023/02/15 03:19:35;;;;;;;32.45;21.92;;;7.50;72.20;;;;;;6276723;22;20002;-75
2023/02/15 03:22:09;;;;;;;28.13;20.98;;;7.50;72.50;;;;;;6276525;22;20004;-75
2023/02/15 03:24:56;;;;;;;30.08;22.95;;;7.50;73.10;;;;;;6276446;22;20008;-74
2023/02/15 03:27:32;;;;;;;33.17;21.63;;;7.50;73.00;;;;;;6274934;22;20046;-75
2023/02/15 03:29:59;;;;;;;29.20;21.55;;;7.50;72.30;;;;;;6276239;22;20421;-74
2023/02/15 03:32:28;;;;;;;28.50;21.52;;;7.50;72.90;;;;;;6274468;22;20491;-75
2023/02/15 03:34:54;;;;;;;32.78;22.48;;;7.40;72.60;;;;;;6276265;22;20370;-74
2023/02/15 03:37:58;;;;;;;29.92;20.52;;;7.40;73.00;;;;;;6276288;22;20066;-75
2023/02/15 03:43:39;;;;;;;28.88;21.25;;;7.40;73.20;;;;;;6275974;22;20384;-75
2023/02/15 03:46:21;;;;;;;34.92;22.38;;;7.40;73.40;;;;;;6274347;22;20354;-75
2023/02/15 03:48:56;;;;;;;26.08;20.42;;;7.30;72.80;;;;;;6274682;22;20012;-74
2023/02/15 03:51:37;;;;;;;30.27;21.50;;;7.30;73.00;;;;;;6276441;22;20027;-75
2023/02/15 03:54:43;;;;;;;31.10;21.45;;;7.30;73.10;;;;;;6276420;22;20003;-75
2023/02/15 04:03:14;;;;;;;27.48;21.52;;;7.20;73.60;;;;;;6276490;22;20026;-74
2023/02/15 04:05:40;;;;;;;28.90;21.02;;;7.10;74.70;;;;;;6276286;22;20038;-74
2023/02/15 04:08:06;;;;;;;29.17;19.83;;;7.10;73.40;;;;;;6274787;22;20007;-74
2023/02/15 04:13:16;;;;;;;28.95;21.40;;;7.20;74.20;;;;;;6276404;22;20039;-74
2023/02/15 04:26:39;;;;;;;27.70;20.63;;;7.00;74.00;;;;;;6276795;22;20030;-74
2023/02/15 04:29:04;;;;;;;26.63;20.30;;;6.90;72.90;;;;;;6292908;22;20011;-75
2023/02/15 04:31:30;;;;;;;29.48;20.75;;;6.80;73.20;;;;;;6301653;22;19998;-75
2023/02/15 04:33:55;;;;;;;27.73;19.23;;;6.80;73.10;;;;;;6303174;22;20000;-75
2023/02/15 04:36:21;;;;;;;29.25;20.25;;;6.80;72.60;;;;;;6299735;22;20432;-74
2023/02/15 04:38:47;;;;;;;25.98;18.27;;;6.80;72.90;;;;;;6276874;22;20148;-75
2023/02/15 04:41:13;;;;;;;25.40;18.30;;;6.80;72.40;;;;;;6276369;22;20007;-75
2023/02/15 04:43:38;;;;;;;25.65;18.38;;;6.80;72.40;;;;;;6275913;22;20000;-74
2023/02/15 04:46:04;;;;;;;24.83;17.70;;;6.80;72.20;;;;;;6276160;22;20468;-75
2023/02/15 04:48:30;;;;;;;26.92;17.52;;;6.80;72.00;;;;;;6276002;22;20054;-76
2023/02/15 04:50:56;;;;;;;24.98;18.00;;;6.80;72.70;;;;;;6276064;22;20078;-75
2023/02/15 04:53:21;;;;;;;23.33;17.38;;;6.80;72.70;;;;;;6274217;22;20087;-76
2023/02/15 04:55:47;;;;;;;26.00;17.45;;;6.80;71.80;;;;;;6275605;22;20015;-74
2023/02/15 04:58:13;;;;;;;22.45;17.30;;;6.90;72.40;;;;;;6275558;22;19999;-75
2023/02/15 05:00:39;;;;;;;26.88;19.65;;;6.90;71.90;;;;;;6275811;22;20010;-74
2023/02/15 05:03:04;;;;;;;24.42;18.50;;;6.90;71.60;;;;;;6275732;22;19996;-75
2023/02/15 05:05:30;;;;;;;23.67;17.38;;;6.80;71.40;;;;;;6275530;22;20338;-74
2023/02/15 05:07:56;;;;;;;26.38;18.60;;;6.80;72.10;;;;;;6275471;22;20003;-74
2023/02/15 05:10:22;;;;;;;25.45;17.23;;;6.90;72.00;;;;;;6273743;22;20008;-74
2023/02/15 05:12:47;;;;;;;29.33;18.23;;;6.90;71.80;;;;;;6275997;22;20022;-75
2023/02/15 05:15:13;;;;;;;24.23;18.65;;;6.80;71.80;;;;;;6275671;22;20004;-74
2023/02/15 05:17:39;;;;;;;30.63;18.13;;;6.80;72.30;;;;;;6275356;22;19996;-75
2023/02/15 05:20:05;;;;;;;25.45;19.48;;;6.80;71.90;;;;;;6276070;22;20040;-74
2023/02/15 05:22:31;;;;;;;26.20;18.10;;;6.80;72.40;;;;;;6274306;22;20031;-74
2023/02/15 05:30:25;;;;;;;26.80;20.05;;;6.60;73.80;;;;;;6277781;22;20402;-76
2023/02/15 05:32:51;;;;;;;30.48;19.73;;;6.50;72.90;;;;;;6277791;22;20008;-76
2023/02/15 05:35:16;;;;;;;29.10;20.42;;;6.50;72.80;;;;;;6277870;22;20019;-76
2023/02/15 05:37:42;;;;;;;27.30;20.52;;;6.50;72.80;;;;;;6278063;22;20074;-75
2023/02/15 05:40:09;;;;;;;27.23;20.98;;;6.40;73.10;;;;;;6277898;22;20004;-74
2023/02/15 05:42:35;;;;;;;32.55;21.35;;;6.40;73.20;;;;;;6277601;22;20025;-74
2023/02/15 05:45:01;;;;;;;28.88;19.33;;;6.50;73.50;;;;;;6277506;22;20011;-73
2023/02/15 05:47:26;;;;;;;29.77;20.10;;;6.50;73.10;;;;;;6277651;22;20027;-74
2023/02/15 05:49:52;;;;;;;29.42;19.35;;;6.50;73.30;;;;;;6278104;22;20084;-75
2023/02/15 05:52:18;;;;;;;30.35;21.50;;;6.50;73.20;;;;;;6277568;22;19996;-75
2023/02/15 05:54:43;;;;;;;29.88;20.35;;;6.50;73.30;;;;;;6277386;22;20373;-74
2023/02/15 05:57:09;;;;;;;31.10;21.85;;;6.50;73.40;;;;;;6277699;22;20068;-78
2023/02/15 05:59:35;;;;;;;27.15;21.52;;;6.50;73.80;;;;;;6277586;22;19996;-74
2023/02/15 06:02:00;;;;;;;29.83;20.60;;;6.40;73.60;;;;;;6277622;22;20012;-75
2023/02/15 06:04:26;;;;;;;30.15;22.17;;;6.40;73.90;;;;;;6277489;22;20333;-75
2023/02/15 06:06:52;;;;;;;31.67;22.50;;;6.40;74.00;;;;;;6277273;22;20325;-75
2023/02/15 06:09:19;;;;;;;32.45;22.30;;;6.40;73.80;;;;;;6277444;22;19995;-75
2023/02/15 06:11:45;;;;;;;31.63;21.83;;;6.30;73.80;;;;;;6275870;22;20003;-76
2023/02/15 06:14:11;;;;;;;33.50;22.48;;;6.30;74.50;;;;;;6277407;22;20089;-75
2023/02/15 06:16:37;;;;;;;29.42;21.90;;;6.30;74.20;;;;;;6277297;22;20000;-74
2023/02/15 06:19:03;;;;;;;30.50;22.35;;;6.20;73.90;;;;;;6277190;22;20071;-75
2023/02/15 06:21:29;;;;;;;31.92;22.33;;;6.20;74.60;;;;;;6277492;22;20452;-74
2023/02/15 06:23:55;;;;;;;32.08;20.90;;;6.20;74.60;;;;;;6277562;22;20074;-77
2023/02/15 06:26:21;;;;;;;32.63;22.00;;;6.30;74.90;;;;;;6277671;22;20049;-74
2023/02/15 06:28:47;;;;;;;33.35;23.08;;;6.40;74.80;;;;;;6275169;22;20353;-74
2023/02/15 06:31:12;;;;;;;32.88;22.30;;;6.50;74.60;;;;;;6277113;22;20091;-75
2023/02/15 06:33:38;;;;;;;27.58;20.73;;;6.50;74.90;;;;;;6276799;22;20003;-74
2023/02/15 06:36:04;;;;;;;29.83;22.45;;;6.60;74.80;;;;;;6277752;22;20397;-77
2023/02/15 06:38:30;;;;;;;30.02;22.17;;;6.70;74.40;;;;;;6276606;22;20053;-75
2023/02/15 06:40:56;;;;;;;37.83;24.02;;;6.70;74.10;;;;;;6277011;22;20003;-75
2023/02/15 06:43:22;;;;;;;31.75;23.55;;;6.70;74.10;;;;;;6275038;22;20011;-76
2023/02/15 06:45:47;;;;;;;34.08;24.23;;;6.70;73.90;;;;;;6275097;22;20138;-74
2023/02/15 06:48:13;;;;;;;34.63;24.02;;;6.80;73.90;;;;;;6275367;22;20039;-76
2023/02/15 06:50:39;;;;;;;39.10;23.17;;;6.80;74.10;;;;;;6276817;22;20402;-75
2023/02/15 06:53:05;;;;;;;31.60;22.75;;;6.80;73.90;;;;;;6277141;22;20429;-75
2023/02/15 06:55:31;;;;;;;31.58;22.38;;;6.80;73.90;;;;;;6275515;22;20018;-76
2023/02/15 06:57:56;;;;;;;34.00;21.35;;;6.90;73.40;;;;;;6276956;22;20054;-76
2023/02/15 07:00:23;;;;;;;30.15;21.00;;;6.80;73.40;;;;;;6276829;22;20024;-75
2023/02/15 07:02:57;;;;;;;28.02;21.23;;;6.90;73.50;;;;;;6277174;22;20073;-75
2023/02/15 07:05:24;;;;;;;31.48;20.63;;;6.90;74.00;;;;;;6277141;22;20437;-75
2023/02/15 07:07:50;;;;;;;28.65;19.63;;;7.00;72.30;;;;;;6275237;22;20015;-76
2023/02/15 07:10:16;;;;;;;30.83;20.58;;;7.10;72.10;;;;;;6276764;22;20461;-75
2023/02/15 07:12:42;;;;;;;29.35;20.48;;;7.30;72.10;;;;;;6276718;22;20007;-76
2023/02/15 07:15:09;;;;;;;28.02;20.42;;;7.50;71.50;;;;;;6276524;22;20000;-75
2023/02/15 07:17:36;;;;;;;28.15;19.63;;;7.70;70.50;;;;;;6276833;22;20329;-75
2023/02/15 07:20:11;;;;;;;29.67;19.77;;;7.80;70.20;;;;;;6276598;22;19999;-75
2023/02/15 07:22:37;;;;;;;31.33;21.10;;;7.90;70.40;;;;;;6276409;22;20008;-75
2023/02/15 07:25:04;;;;;;;35.30;21.88;;;8.00;69.80;;;;;;6276080;22;20395;-76
2023/02/15 07:27:31;;;;;;;31.02;21.58;;;8.10;69.50;;;;;;6276107;22;20006;-73
2023/02/15 07:29:56;;;;;;;30.85;20.73;;;8.20;69.40;;;;;;6276401;22;20077;-78
2023/02/15 07:32:22;;;;;;;39.33;22.08;;;8.20;69.30;;;;;;6274803;22;20037;-77
2023/02/15 07:34:48;;;;;;;28.95;21.42;;;8.40;69.50;;;;;;6276265;22;20000;-73
2023/02/15 07:37:13;;;;;;;33.08;22.42;;;8.50;69.20;;;;;;6274769;22;20434;-74
2023/02/15 07:39:39;;;;;;;33.08;22.58;;;8.60;68.50;;;;;;6276315;22;20000;-76
2023/02/15 07:42:05;;;;;;;31.90;22.17;;;8.70;68.90;;;;;;6274275;22;20011;-73
2023/02/15 07:44:31;;;;;;;36.13;22.25;;;8.60;67.90;;;;;;6276625;22;20014;-75
2023/02/15 07:46:56;;;;;;;42.97;23.23;;;8.70;68.50;;;;;;6277495;22;20082;-73
2023/02/15 07:49:22;;;;;;;35.30;21.08;;;8.80;68.10;;;;;;6285404;22;20065;-74
2023/02/15 07:51:48;;;;;;;34.10;22.80;;;8.90;67.50;;;;;;6287054;22;20024;-73
2023/02/15 07:54:14;;;;;;;34.55;20.42;;;9.00;67.80;;;;;;6302406;22;20037;-74
2023/02/15 07:56:40;;;;;;;31.30;21.95;;;9.00;66.80;;;;;;6302227;22;20004;-73
2023/02/15 07:59:05;;;;;;;32.08;21.70;;;9.20;67.50;;;;;;6277943;22;20422;-74
2023/02/15 08:01:34;;;;;;;34.58;21.65;;;9.30;67.30;;;;;;6275747;22;20004;-74
2023/02/15 08:04:01;;;;;;;35.13;21.70;;;9.40;66.40;;;;;;6274131;22;20020;-75
2023/02/15 08:06:29;;;;;;;34.60;21.75;;;9.50;66.40;;;;;;6275500;22;20019;-75
2023/02/15 08:08:55;;;;;;;32.10;20.77;;;9.40;66.10;;;;;;6275158;22;20272;-74
2023/02/15 08:11:25;;;;;;;30.40;20.35;;;9.40;65.80;;;;;;6275312;22;20094;-76
2023/02/15 08:14:14;;;;;;;31.20;20.58;;;9.40;65.80;;;;;;6275407;22;20007;-74
2023/02/15 08:16:50;;;;;;;31.17;21.02;;;9.40;66.10;;;;;;6275750;22;20007;-74
2023/02/15 08:19:21;;;;;;;28.63;20.08;;;9.30;65.30;;;;;;6275318;22;20022;-74
2023/02/15 08:21:50;;;;;;;29.40;21.02;;;9.30;65.60;;;;;;6275173;22;20011;-73
2023/02/15 08:24:18;;;;;;;29.55;19.92;;;9.40;65.60;;;;;;6275216;22;20074;-75
2023/02/15 08:26:46;;;;;;;25.65;19.58;;;9.40;65.40;;;;;;6275118;22;20011;-74
2023/02/15 08:29:13;;;;;;;31.10;21.08;;;9.30;65.10;;;;;;6274861;22;20012;-74
2023/02/15 08:31:40;;;;;;;37.22;21.75;;;9.20;65.10;;;;;;6274931;22;20003;-74
2023/02/15 08:34:07;;;;;;;29.35;21.75;;;9.20;65.20;;;;;;6274172;22;19999;-73
2023/02/15 08:36:34;;;;;;;33.53;21.58;;;9.20;65.00;;;;;;6275843;22;19999;-73
2023/02/15 08:39:02;;;;;;;35.42;21.73;;;9.20;65.00;;;;;;6275818;22;20077;-73
2023/02/15 08:41:30;;;;;;;28.27;20.65;;;9.20;65.20;;;;;;6275690;22;20054;-73
2023/02/15 08:43:58;;;;;;;32.35;21.27;;;9.20;65.10;;;;;;6275743;22;20000;-74
2023/02/15 08:46:27;;;;;;;31.15;21.30;;;9.30;65.00;;;;;;6275487;22;20128;-74
2023/02/15 08:48:53;;;;;;;35.28;20.95;;;9.40;64.70;;;;;;6275438;22;20053;-71
2023/02/15 08:51:21;;;;;;;34.30;21.30;;;9.40;64.80;;;;;;6275839;22;20075;-75
2023/02/15 08:53:49;;;;;;;31.05;20.85;;;9.40;64.90;;;;;;6276050;22;20007;-73
2023/02/15 08:56:17;;;;;;;33.25;20.48;;;9.50;64.70;;;;;;6275646;22;20079;-74
2023/02/15 08:58:43;;;;;;;30.38;20.17;;;9.50;64.20;;;;;;6275491;22;20000;-75
2023/02/15 09:01:17;;;;;;;28.90;20.40;;;9.50;64.20;;;;;;6275138;22;20014;-74
2023/02/15 09:03:44;;;;;;;31.08;20.08;;;9.50;63.90;;;;;;6275453;22;20000;-74
2023/02/15 09:06:10;;;;;;;29.90;20.85;;;9.60;64.10;;;;;;6273575;22;20016;-74
2023/02/15 09:08:36;;;;;;;30.30;21.38;;;9.70;64.20;;;;;;6275040;22;20161;-74
2023/02/15 09:11:11;;;;;;;33.70;20.73;;;9.80;63.90;;;;;;6275110;22;19999;-73
2023/02/15 09:13:38;;;;;;;31.63;20.15;;;9.90;63.90;;;;;;6275105;22;20057;-74
2023/02/15 09:16:06;;;;;;;30.85;20.08;;;9.90;63.30;;;;;;6275006;22;20078;-72
2023/02/15 09:18:36;;;;;;;30.73;21.15;;;10.00;62.50;;;;;;6275066;22;20000;-73
2023/02/15 09:21:09;;;;;;;32.53;20.38;;;10.10;62.00;;;;;;6275097;22;20045;-74
2023/02/15 09:23:35;;;;;;;25.03;14.53;;;10.20;61.90;;;;;;6273384;22;20011;-73
2023/02/15 09:26:09;;;;;;;32.17;20.30;;;10.20;61.90;;;;;;6275454;22;20712;-74
2023/02/15 09:28:35;;;;;;;36.38;21.00;;;10.30;61.70;;;;;;6274573;22;20015;-73
2023/02/15 09:31:10;;;;;;;26.40;20.45;;;10.40;61.60;;;;;;6273394;22;20334;-74
2023/02/15 09:33:36;;;;;;;30.70;21.15;;;10.40;61.40;;;;;;6273609;22;20142;-74
2023/02/15 09:36:04;;;;;;;24.80;20.10;;;10.50;61.30;;;;;;6273669;22;20049;-73
2023/02/15 09:38:30;;;;;;;27.38;19.83;;;10.60;60.90;;;;;;6273495;22;19999;-74
2023/02/15 09:41:22;;;;;;;28.05;19.42;;;10.70;60.40;;;;;;6273657;22;20012;-74
2023/02/15 09:43:56;;;;;;;40.10;19.60;;;10.80;60.50;;;;;;6269334;22;20027;-74
2023/02/15 09:46:34;;;;;;;28.67;20.60;;;10.90;61.10;;;;;;6275323;22;20146;-74
2023/02/15 09:49:25;;;;;;;28.42;19.65;;;11.00;60.90;;;;;;6275532;22;20105;-74
2023/02/15 09:52:20;;;;;;;27.63;19.48;;;11.10;59.60;;;;;;6275095;22;19995;-74
2023/02/15 09:54:46;;;;;;;25.95;17.98;;;11.30;59.60;;;;;;6249342;22;20015;-74
2023/02/15 09:57:41;;;;;;;33.58;19.55;;;11.40;59.60;;;;;;6274930;22;20075;-74
2023/02/15 10:00:28;;;;;;;29.60;18.85;;;11.50;59.80;;;;;;6261491;22;20008;-73
2023/02/15 10:03:12;;;;;;;38.35;20.48;;;11.60;60.00;;;;;;6273782;22;20007;-74
2023/02/15 10:06:01;;;;;;;;;;;11.70;58.80;;;;;;6275581;22;20011;-73
2023/02/15 10:08:38;;;;;;;28.85;19.63;;;11.80;59.30;;;;;;6275433;22;19981;-74
2023/02/15 10:11:39;;;;;;;32.30;20.92;;;11.90;59.40;;;;;;6273351;22;20437;-74
2023/02/15 10:14:24;;;;;;;27.58;19.23;;;12.00;59.20;;;;;;6276889;22;20003;-74
2023/02/15 10:17:17;;;;;;;29.92;20.08;;;12.10;58.50;;;;;;6276604;22;20061;-74
2023/02/15 10:19:57;;;;;;;27.17;18.38;;;12.20;58.80;;;;;;6276540;22;20000;-73
2023/02/15 10:22:35;;;;;;;31.70;20.23;;;12.30;58.70;;;;;;6276550;22;19999;-73
2023/02/15 10:25:13;;;;;;;34.20;20.85;;;12.40;58.60;;;;;;6276660;22;20012;-73
2023/02/15 10:27:47;;;;;;;28.67;19.25;;;12.50;58.10;;;;;;6276639;22;20000;-73
2023/02/15 10:30:27;;;;;;;28.98;18.05;;;12.70;58.20;;;;;;6276617;22;20015;-73
2023/02/15 10:33:00;;;;;;;26.88;18.70;;;12.80;58.50;;;;;;6277140;22;20004;-72
2023/02/15 10:35:52;;;;;;;29.35;19.42;;;12.90;58.10;;;;;;6275322;22;20003;-72
2023/02/15 10:38:37;;;;;;;30.80;19.35;;;13.00;57.60;;;;;;6276759;22;20314;-74
2023/02/15 10:41:34;;;;;;;28.92;19.02;;;13.10;57.40;;;;;;6274857;22;20086;-74
2023/02/15 10:44:19;;;;;;;26.77;18.98;;;13.20;57.60;;;;;;6277091;22;20010;-73
2023/02/15 10:47:13;;;;;;;31.33;19.67;;;13.30;57.20;;;;;;6277255;22;20449;-75
2023/02/15 10:49:38;;;;;;;27.70;19.63;;;13.40;56.80;;;;;;6276718;22;20007;-73
2023/02/15 10:52:33;;;;;;;24.63;18.95;;;13.50;57.10;;;;;;6276638;22;20011;-74
2023/02/15 10:54:58;;;;;;;;;;;13.60;56.50;;;;;;6277940;22;20007;-73
2023/02/15 10:57:33;;;;;;;29.60;18.98;;;13.70;56.00;;;;;;6276847;22;19906;-73
2023/02/15 11:00:10;;;;;;;25.83;18.35;;;13.80;56.20;;;;;;6275276;22;20424;-73
2023/02/15 11:02:59;;;;;;;31.55;18.80;;;13.90;56.10;;;;;;6277482;22;20401;-75
2023/02/15 11:05:30;;;;;;;29.83;18.98;;;14.10;55.80;;;;;;6219933;22;20026;-74
2023/02/15 11:07:59;;;;;;;29.75;18.60;;;14.20;54.90;;;;;;6276625;22;20126;-74
2023/02/15 11:10:25;;;;;;;28.60;19.25;;;14.20;55.10;;;;;;6276199;22;20003;-73
2023/02/15 11:12:50;;;;;;;30.67;19.80;;;14.30;54.80;;;;;;6276238;22;20139;-75
2023/02/15 11:15:28;;;;;;;34.30;19.05;;;14.40;54.20;;;;;;6276115;22;20298;-74
2023/02/15 11:18:21;;;;;;;34.28;19.88;;;14.50;54.60;;;;;;6276703;22;20075;-74
2023/02/15 11:20:55;;;;;;;26.90;18.97;;;14.60;54.20;;;;;;6255325;22;20012;-75
2023/02/15 11:23:24;;;;;;;27.83;19.05;;;14.70;54.10;;;;;;6280117;22;19998;-73
2023/02/15 11:25:59;;;;;;;27.17;16.70;;;14.80;53.90;;;;;;6284361;22;20045;-73
2023/02/15 11:28:41;;;;;;;24.73;17.15;;;14.90;52.60;;;;;;6292818;22;20011;-74
2023/02/15 11:31:19;;;;;;;26.15;16.38;;;15.10;53.40;;;;;;6306663;22;20011;-73
2023/02/15 11:33:50;;;;;;;23.52;17.42;;;15.20;52.90;;;;;;6279155;22;20049;-74
2023/02/15 11:36:21;;;;;;;28.30;17.92;;;15.30;52.50;;;;;;6306778;22;20007;-74
2023/02/15 11:38:52;;;;;;;27.65;20.10;;;15.30;51.90;;;;;;6279347;22;20089;-74
2023/02/15 11:41:24;;;;;;;27.08;18.23;;;15.40;51.40;;;;;;6279307;22;20050;-73
2023/02/15 11:43:56;;;;;;;27.92;19.65;;;15.50;51.50;;;;;;6279319;22;20088;-75
2023/02/15 11:46:22;;;;;;;28.25;18.52;;;15.60;51.00;;;;;;6306527;22;20332;-73
2023/02/15 11:48:48;;;;;;;25.98;18.95;;;15.70;51.40;;;;;;6306566;22;19996;-74
2023/02/15 11:51:18;;;;;;;26.50;17.90;;;15.80;51.00;;;;;;6306597;22;20003;-74
2023/02/15 11:53:45;;;;;;;25.67;17.35;;;15.90;50.30;;;;;;6306903;22;20003;-74
2023/02/15 11:56:20;;;;;;;28.83;17.08;;;15.90;50.20;;;;;;6306612;22;19999;-74
2023/02/15 11:58:58;;;;;;;24.98;16.45;;;16.00;50.10;;;;;;6306367;22;19999;-74
2023/02/15 12:01:42;;;;;;;23.30;14.73;;;16.10;51.10;;;;;;6306319;22;20004;-74
2023/02/15 12:04:17;;;;;;;;;;;16.10;49.50;;;;;;6306418;22;20005;-74
2023/02/15 12:07:25;;;;;;;23.95;15.55;;;16.10;49.90;;;;;;6306034;22;19907;-74
2023/02/15 12:09:59;;;;;;;24.35;14.85;;;16.30;49.70;;;;;;6306324;22;20003;-74
2023/02/15 12:12:26;;;;;;;26.95;16.38;;;16.30;49.30;;;;;;6278781;22;20026;-74
2023/02/15 12:15:00;;;;;;;27.25;17.08;;;16.40;49.80;;;;;;6306116;22;19995;-74
2023/02/15 12:17:33;;;;;;;25.88;16.38;;;16.50;49.40;;;;;;6306114;22;19995;-74
2023/02/15 12:20:25;;;;;;;28.75;17.35;;;16.60;49.60;;;;;;6306121;22;20006;-75
2023/02/15 12:23:13;;;;;;;30.40;16.30;;;16.70;49.60;;;;;;6278273;22;20008;-74
2023/02/15 12:25:54;;;;;;;24.65;16.50;;;16.70;50.00;;;;;;6285356;22;20047;-75
2023/02/15 12:28:36;;;;;;;26.13;16.92;;;16.80;49.20;;;;;;6306364;22;20299;-75
2023/02/15 12:31:08;;;;;;;25.75;17.00;;;16.80;50.10;;;;;;6306217;22;20405;-74
2023/02/15 12:33:45;;;;;;;27.55;16.85;;;16.90;49.00;;;;;;6306052;22;19995;-75
2023/02/15 12:36:12;;;;;;;22.65;15.07;;;17.00;49.30;;;;;;6278020;22;20366;-75
2023/02/15 12:38:38;;;;;;;27.52;16.50;;;17.00;48.90;;;;;;6305893;22;20000;-73
2023/02/15 12:41:21;;;;;;;32.50;16.38;;;17.10;49.20;;;;;;6306011;22;20388;-75
2023/02/15 12:43:58;;;;;;;18.55;11.82;;;17.10;48.90;;;;;;6306243;22;19999;-74
2023/02/15 12:46:26;;;;;;;26.63;15.63;;;17.20;49.60;;;;;;6305915;22;20007;-74
2023/02/15 12:49:09;;;;;;;24.05;16.02;;;17.30;49.00;;;;;;6306251;22;19995;-74
2023/02/15 12:52:03;;;;;;;31.75;15.90;;;17.30;48.90;;;;;;6306542;22;20060;-74
2023/02/15 12:54:40;;;;;;;26.63;16.02;;;17.30;49.80;;;;;;6306082;22;19995;-73
2023/02/15 12:57:33;;;;;;;23.98;16.33;;;17.40;49.00;;;;;;6306168;22;20007;-75
2023/02/15 13:00:03;;;;;;;25.33;16.17;;;17.40;48.50;;;;;;6300126;22;20073;-74
2023/02/15 13:02:40;;;;;;;28.80;17.38;;;17.40;48.90;;;;;;6278782;22;20098;-74
2023/02/15 13:05:31;;;;;;;23.77;15.95;;;17.40;48.60;;;;;;6278617;22;20012;-75
2023/02/15 13:08:25;;;;;;;28.00;16.27;;;17.50;48.50;;;;;;6278664;22;20094;-74
2023/02/15 13:11:02;;;;;;;29.48;15.63;;;17.50;48.00;;;;;;6306452;22;20003;-74
2023/02/15 13:13:34;;;;;;;28.23;15.55;;;17.60;48.30;;;;;;6278714;22;20107;-75
2023/02/15 13:16:10;;;;;;;27.13;15.52;;;17.70;48.30;;;;;;6306714;22;20493;-73
2023/02/15 13:18:46;;;;;;;27.45;15.50;;;17.70;48.30;;;;;;6306311;22;20094;-74
2023/02/15 13:21:16;;;;;;;28.02;16.38;;;17.80;48.30;;;;;;6306103;22;20003;-75
2023/02/15 13:23:48;;;;;;;23.98;15.88;;;17.90;48.00;;;;;;6307172;22;20337;-73
2023/02/15 13:26:23;;;;;;;24.50;14.52;;;18.00;48.10;;;;;;6281441;22;20073;-75
2023/02/15 13:28:58;;;;;;;25.88;15.65;;;18.00;47.90;;;;;;6308688;22;20019;-74
2023/02/15 13:31:31;;;;;;;22.88;15.32;;;18.00;47.70;;;;;;6306254;22;20037;-75